LFLL/LYS METAR and TAF weather

Enter ICAO airport designator
Station Type Date Time Source
LFLL METAR 2022/06/28 16:00 UTC NOAA

LFLL 281600Z 36012KT 330V030 9999 FEW040 SCT056 25/15 Q1015 NOSIG


Station Type Date Time Source
LFLL Decoded METAR 2022/06/28 16:00 UTC NOAA

Lyon / Satolas, France (LFLL) 45-44N 005-05E 240M
Jun 28, 2022 - 12:00 PM EDT / 2022.06.28 1600 UTC
Wind: from the N (360 degrees) at 14 MPH (12 KT) (direction variable):0
Visibility: greater than 7 mile(s):0
Sky conditions: partly cloudy
Temperature: 77 F (25 C)
Dew Point: 59 F (15 C)
Relative Humidity: 53%
Pressure (altimeter): 29.97 in. Hg (1015 hPa)
ob: LFLL 281600Z 36012KT 330V030 9999 FEW040 SCT056 25/15 Q1015 NOSIG
cycle: 16

Station Type Date Time Source
LFLL TAF 2022/06/28 12:21 UTC NOAA

TAF LFLL 281100Z 2812/2918 34008KT 9999 BKN040
TEMPO 2812/2820 NSC PROB30
TEMPO 2900/2907 -RA BKN012 OVC040
BECMG 2909/2911 NSC

Example: see airport list